Time,TemperatureF,DewpointF,PressureIn,WindDirection,WindDirectionDegrees,WindSpeedMPH,WindSpeedGustMPH,Humidity,HourlyPrecipIn,Conditions,Clouds,dailyrainin,SoftwareType,DateUTC
2013-10-20 00:01:00,32.4,26.9,29.61,West,276,2.0,2.3,80,0.00,RA,SKC,0.00,WeatherDisplay:10.37,2013-10-20 05:01:00,
2013-10-20 00:06:00,30.9,26.3,29.60,West,276,0.0,0.0,83,0.00,RA,SKC,0.00,WeatherDisplay:10.37,2013-10-20 05:06:00,
2013-10-20 00:11:00,32.4,26.9,29.61,West,276,2.0,2.3,80,0.00,CLR,SKC,0.00,WeatherDisplay:10.37,2013-10-20 05:11:00,
2013-10-20 00:16:00,32.4,26.9,29.61,West,276,2.0,2.3,80,0.00,CLR,SKC,0.00,WeatherDisplay:10.37,2013-10-20 05:16:00,
2013-10-20 00:21:00,30.9,26.3,29.59,West,276,0.0,0.0,83,0.00,CLR,SKC,0.00,WeatherDisplay:10.37,2013-10-20 05:21:00,
2013-10-20 00:26:00,32.4,26.9,29.61,West,276,2.0,2.3,80,0.00,CLR,SKC,0.00,WeatherDisplay:10.37,2013-10-20 05:26:00,
2013-10-20 00:31:00,32.4,26.9,29.61,West,276,2.0,2.3,80,0.00,CLR,SKC,0.00,WeatherDisplay:10.37,2013-10-20 05:31:00,
2013-10-20 00:36:00,30.7,26.1,29.60,West,276,0.0,0.0,83,0.00,CLR,SKC,0.00,WeatherDisplay:10.37,2013-10-20 05:36:00,
2013-10-20 00:41:00,32.4,26.9,29.61,West,276,2.0,2.3,80,0.00,CLR,SKC,0.00,WeatherDisplay:10.37,2013-10-20 05:41:00,
2013-10-20 00:46:00,30.7,26.1,29.59,West,276,0.0,0.0,83,0.00,CLR,SKC,0.00,WeatherDisplay:10.37,2013-10-20 05:46:00,
2013-10-20 00:51:00,30.7,26.1,29.59,West,276,0.0,0.0,83,0.00,CLR,SKC,0.00,WeatherDisplay:10.37,2013-10-20 05:51:00,
2013-10-20 00:56:00,30.7,26.1,29.59,West,276,0.0,0.0,83,0.00,CLR,SKC,0.00,WeatherDisplay:10.37,2013-10-20 05:56:00,
2013-10-20 01:01:00,32.4,26.9,29.61,West,276,2.0,2.3,80,0.00,CLR,SKC,0.00,WeatherDisplay:10.37,2013-10-20 06:01:00,
2013-10-20 01:06:00,30.8,26.2,29.59,West,276,0.0,0.0,83,0.00,CLR,SKC,0.00,WeatherDisplay:10.37,2013-10-20 06:06:00,
2013-10-20 01:11:00,30.9,26.3,29.59,West,276,0.0,0.0,83,0.00,CLR,SKC,0.00,WeatherDisplay:10.37,2013-10-20 06:11:00,
2013-10-20 01:16:00,30.9,26.3,29.59,West,276,0.0,0.0,83,0.00,CLR,SKC,0.00,WeatherDisplay:10.37,2013-10-20 06:16:00,
2013-10-20 01:21:00,30.9,26.3,29.59,West,276,0.0,2.3,83,0.00,CLR,SKC,0.00,WeatherDisplay:10.37,2013-10-20 06:21:00,
2013-10-20 01:26:00,31.0,26.7,29.59,West,276,0.0,0.0,84,0.00,CLR,SKC,0.00,WeatherDisplay:10.37,2013-10-20 06:26:00,
2013-10-20 01:31:00,31.0,26.7,29.59,West,276,0.0,0.0,84,0.00,CLR,SKC,0.00,WeatherDisplay:10.37,2013-10-20 06:31:00,
2013-10-20 01:36:00,30.9,26.3,29.59,West,276,0.0,0.0,83,0.00,CLR,SKC,0.00,WeatherDisplay:10.37,2013-10-20 06:36:00,
2013-10-20 01:41:00,32.4,26.9,29.61,West,276,2.0,2.3,80,0.00,CLR,SKC,0.00,WeatherDisplay:10.37,2013-10-20 06:41:00,
2013-10-20 01:46:00,32.4,26.9,29.61,West,276,2.0,2.3,80,0.00,CLR,SKC,0.00,WeatherDisplay:10.37,2013-10-20 06:46:00,
2013-10-20 01:51:00,32.4,26.9,29.61,West,276,2.0,2.3,80,0.00,CLR,SKC,0.00,WeatherDisplay:10.37,2013-10-20 06:51:00,
2013-10-20 01:56:00,30.7,26.4,29.58,West,276,0.0,0.0,84,0.00,CLR,SKC,0.00,WeatherDisplay:10.37,2013-10-20 06:56:00,
2013-10-20 02:01:00,32.4,26.9,29.61,West,276,2.0,2.3,80,0.00,CLR,SKC,0.00,WeatherDisplay:10.37,2013-10-20 07:01:00,
2013-10-20 02:06:00,30.6,26.3,29.58,West,276,0.0,2.3,84,0.00,CLR,SKC,0.00,WeatherDisplay:10.37,2013-10-20 07:06:00,
2013-10-20 02:11:00,32.4,26.9,29.61,West,276,2.0,2.3,80,0.00,CLR,SKC,0.00,WeatherDisplay:10.37,2013-10-20 07:11:00,
2013-10-20 02:16:00,32.4,26.9,29.61,West,276,2.0,2.3,80,0.00,CLR,SKC,0.00,WeatherDisplay:10.37,2013-10-20 07:16:00,
2013-10-20 02:21:00,32.4,26.9,29.61,West,276,2.0,2.3,80,0.00,CLR,SKC,0.00,WeatherDisplay:10.37,2013-10-20 07:21:00,
2013-10-20 02:26:00,32.4,26.9,29.61,West,276,2.0,2.3,80,0.00,CLR,SKC,0.00,WeatherDisplay:10.37,2013-10-20 07:26:00,
2013-10-20 02:31:00,32.4,26.9,29.61,West,276,2.0,2.3,80,0.00,CLR,SKC,0.00,WeatherDisplay:10.37,2013-10-20 07:31:00,
2013-10-20 02:36:00,30.4,26.1,29.58,West,276,0.0,0.0,84,0.00,CLR,SKC,0.00,WeatherDisplay:10.37,2013-10-20 07:36:00,
2013-10-20 02:41:00,30.2,26.2,29.58,West,276,0.6,2.3,85,0.00,SCT,SKC,0.00,WeatherDisplay:10.37,2013-10-20 07:41:00,
2013-10-20 02:46:00,30.1,26.1,29.58,West,276,0.0,3.5,85,0.00,SCT,SKC,0.00,WeatherDisplay:10.37,2013-10-20 07:46:00,
2013-10-20 02:51:00,32.4,26.9,29.61,West,276,2.0,2.3,80,0.00,SCT,SKC,0.00,WeatherDisplay:10.37,2013-10-20 07:51:00,
2013-10-20 02:56:00,30.3,26.3,29.58,West,276,0.0,1.2,85,0.00,SCT,SKC,0.00,WeatherDisplay:10.37,2013-10-20 07:56:00,
2013-10-20 03:01:00,32.4,26.9,29.61,West,276,2.0,2.3,80,0.00,BKN,SKC,0.00,WeatherDisplay:10.37,2013-10-20 08:01:00,
2013-10-20 03:06:00,30.4,26.4,29.58,West,276,0.0,0.0,85,0.00,BKN,SKC,0.00,WeatherDisplay:10.37,2013-10-20 08:06:00,
2013-10-20 03:12:00,30.4,26.4,29.58,West,276,0.3,2.3,85,0.00,BKN,SKC,0.00,WeatherDisplay:10.37,2013-10-20 08:12:00,
2013-10-20 03:17:00,30.6,26.6,29.58,West,276,0.3,2.3,85,0.00,BKN,SKC,0.00,WeatherDisplay:10.37,2013-10-20 08:17:00,
2013-10-20 03:22:00,30.8,26.8,29.58,West,276,0.0,2.3,85,0.00,BKN,SKC,0.00,WeatherDisplay:10.37,2013-10-20 08:22:00,
2013-10-20 03:27:00,32.4,26.9,29.61,West,276,2.0,2.3,80,0.00,BKN,SKC,0.00,WeatherDisplay:10.37,2013-10-20 08:27:00,
2013-10-20 03:32:00,31.3,27.3,29.57,West,276,0.8,3.5,85,0.00,BKN,SKC,0.00,WeatherDisplay:10.37,2013-10-20 08:32:00,
2013-10-20 03:37:00,31.6,27.6,29.57,West,276,0.6,1.2,85,0.00,BKN,SKC,0.00,WeatherDisplay:10.37,2013-10-20 08:37:00,
2013-10-20 03:42:00,32.4,26.9,29.61,West,276,2.0,2.3,80,0.00,OVC,SKC,0.00,WeatherDisplay:10.37,2013-10-20 08:42:00,
2013-10-20 03:47:00,32.4,26.9,29.61,West,276,2.0,2.3,80,0.00,OVC,SKC,0.00,WeatherDisplay:10.37,2013-10-20 08:47:00,
2013-10-20 03:52:00,32.2,28.2,29.57,West,276,0.3,3.5,85,0.00,OVC,SKC,0.00,WeatherDisplay:10.37,2013-10-20 08:52:00,
2013-10-20 03:57:00,32.4,28.4,29.56,West,276,2.4,4.0,85,0.00,OVC,SKC,0.00,WeatherDisplay:10.37,2013-10-20 08:57:00,
2013-10-20 04:02:00,32.6,28.6,29.56,West,276,3.1,4.0,85,0.00,OVC,SKC,0.00,WeatherDisplay:10.37,2013-10-20 09:02:00,
2013-10-20 04:07:00,32.4,26.9,29.61,West,276,2.0,2.3,80,0.00,OVC,SKC,0.00,WeatherDisplay:10.37,2013-10-20 09:07:00,
2013-10-20 04:12:00,32.4,26.9,29.61,West,276,2.0,2.3,80,0.00,OVC,SKC,0.00,WeatherDisplay:10.37,2013-10-20 09:12:00,
2013-10-20 04:17:00,32.4,26.9,29.61,West,276,2.0,2.3,80,0.00,OVC,SKC,0.00,WeatherDisplay:10.37,2013-10-20 09:17:00,
2013-10-20 04:22:00,33.1,28.8,29.56,West,276,3.0,4.0,84,0.00,OVC,SKC,0.00,WeatherDisplay:10.37,2013-10-20 09:22:00,
2013-10-20 04:27:00,32.4,26.9,29.61,West,276,2.0,2.3,80,0.00,OVC,SKC,0.00,WeatherDisplay:10.37,2013-10-20 09:27:00,
2013-10-20 04:32:00,32.4,26.9,29.61,West,276,2.0,2.3,80,0.00,OVC,SKC,0.00,WeatherDisplay:10.37,2013-10-20 09:32:00,
2013-10-20 04:37:00,33.4,29.1,29.56,West,276,3.7,4.6,84,0.00,OVC,SKC,0.00,WeatherDisplay:10.37,2013-10-20 09:37:00,
2013-10-20 04:42:00,33.4,29.1,29.56,West,276,3.7,3.7,84,0.00,OVC,SKC,0.00,WeatherDisplay:10.37,2013-10-20 09:42:00,
2013-10-20 04:47:00,33.5,28.9,29.56,West,276,3.1,6.0,83,0.00,OVC,SKC,0.00,WeatherDisplay:10.37,2013-10-20 09:47:00,
2013-10-20 04:52:00,33.6,29.3,29.56,West,276,3.3,5.0,84,0.00,OVC,SKC,0.00,WeatherDisplay:10.37,2013-10-20 09:52:00,
2013-10-20 04:57:00,33.4,29.1,29.56,West,276,3.7,3.7,84,0.00,OVC,SKC,0.00,WeatherDisplay:10.37,2013-10-20 09:57:00,
2013-10-20 05:02:00,33.7,29.4,29.55,West,276,2.6,4.0,84,0.00,OVC,SKC,0.00,WeatherDisplay:10.37,2013-10-20 10:02:00,
2013-10-20 05:07:00,33.7,29.1,29.55,West,276,3.5,5.0,83,0.00,OVC,SKC,0.00,WeatherDisplay:10.37,2013-10-20 10:07:00,
2013-10-20 05:12:00,33.4,29.1,29.56,West,276,3.7,3.7,84,0.00,OVC,SKC,0.00,WeatherDisplay:10.37,2013-10-20 10:12:00,
2013-10-20 05:17:00,33.4,29.1,29.56,West,276,3.7,3.7,84,0.00,OVC,SKC,0.00,WeatherDisplay:10.37,2013-10-20 10:17:00,
2013-10-20 05:22:00,33.9,29.6,29.54,West,276,2.2,3.5,84,0.00,OVC,SKC,0.00,WeatherDisplay:10.37,2013-10-20 10:22:00,
2013-10-20 05:27:00,33.9,29.6,29.55,West,276,1.7,5.8,84,0.00,OVC,SKC,0.00,WeatherDisplay:10.37,2013-10-20 10:27:00,
2013-10-20 05:32:00,33.9,29.6,29.55,West,276,1.4,2.3,84,0.00,OVC,SKC,0.00,WeatherDisplay:10.37,2013-10-20 10:32:00,
2013-10-20 05:37:00,33.9,29.6,29.55,West,276,1.4,2.3,84,0.00,OVC,SKC,0.00,WeatherDisplay:10.37,2013-10-20 10:37:00,
2013-10-20 05:42:00,33.8,29.8,29.55,West,276,1.9,3.5,85,0.00,OVC,SKC,0.00,WeatherDisplay:10.37,2013-10-20 10:42:00,
2013-10-20 05:47:00,33.9,29.6,29.55,West,276,1.4,2.3,84,0.00,OVC,SKC,0.00,WeatherDisplay:10.37,2013-10-20 10:47:00,
2013-10-20 05:52:00,33.8,29.8,29.54,West,276,3.6,4.0,85,0.00,OVC,SKC,0.00,WeatherDisplay:10.37,2013-10-20 10:52:00,
2013-10-20 05:57:00,33.8,29.8,29.55,West,276,1.9,4.0,85,0.00,OVC,SKC,0.00,WeatherDisplay:10.37,2013-10-20 10:57:00,
2013-10-20 06:02:00,33.8,29.8,29.55,West,276,3.6,5.0,85,0.00,OVC,SKC,0.00,WeatherDisplay:10.37,2013-10-20 11:02:00,
2013-10-20 06:07:00,33.9,29.9,29.55,West,270,5.9,7.0,85,0.00,OVC,SKC,0.00,WeatherDisplay:10.37,2013-10-20 11:07:00,
2013-10-20 06:12:00,33.9,29.9,29.54,West,270,3.8,6.0,85,0.00,OVC,SKC,0.00,WeatherDisplay:10.37,2013-10-20 11:12:00,
2013-10-20 06:17:00,33.8,29.8,29.54,West,270,3.9,5.0,85,0.00,OVC,SKC,0.00,WeatherDisplay:10.37,2013-10-20 11:17:00,
2013-10-20 06:22:00,33.8,29.8,29.55,West,276,3.6,3.6,85,0.00,OVC,SKC,0.00,WeatherDisplay:10.37,2013-10-20 11:22:00,
2013-10-20 06:27:00,33.8,29.8,29.53,West,270,3.8,5.8,85,0.00,OVC,SKC,0.00,WeatherDisplay:10.37,2013-10-20 11:27:00,
2013-10-20 06:32:00,33.8,29.8,29.53,West,270,3.2,4.6,85,0.00,OVC,SKC,0.00,WeatherDisplay:10.37,2013-10-20 11:32:00,
2013-10-20 06:37:00,33.8,29.8,29.55,West,276,3.6,3.6,85,0.00,OVC,SKC,0.00,WeatherDisplay:10.37,2013-10-20 11:37:00,
2013-10-20 06:42:00,33.8,29.8,29.53,West,270,3.9,5.0,85,0.00,OVC,SKC,0.00,WeatherDisplay:10.37,2013-10-20 11:42:00,
2013-10-20 06:47:00,33.8,29.8,29.52,West,270,3.7,3.7,85,0.00,OVC,SKC,0.00,WeatherDisplay:10.37,2013-10-20 11:47:00,
2013-10-20 06:52:00,33.9,29.9,29.52,West,270,2.3,4.6,85,0.00,OVC,SKC,0.00,WeatherDisplay:10.37,2013-10-20 11:52:00,
2013-10-20 06:57:00,33.9,29.9,29.51,West,270,1.4,6.0,85,0.00,OVC,SKC,0.00,WeatherDisplay:10.37,2013-10-20 11:57:00,
2013-10-20 07:02:00,33.8,29.8,29.52,West,270,3.7,3.7,85,0.00,OVC,SKC,0.00,WeatherDisplay:10.37,2013-10-20 12:02:00,
2013-10-20 07:07:00,33.8,29.8,29.52,West,270,3.7,3.7,85,0.00,OVC,SKC,0.00,WeatherDisplay:10.37,2013-10-20 12:07:00,
2013-10-20 07:12:00,33.9,29.9,29.52,West,266,4.7,6.9,85,0.00,OVC,SKC,0.00,WeatherDisplay:10.37,2013-10-20 12:12:00,
2013-10-20 07:17:00,33.8,29.8,29.52,West,270,3.7,3.7,85,0.00,OVC,SKC,0.00,WeatherDisplay:10.37,2013-10-20 12:17:00,
2013-10-20 07:22:00,33.8,29.8,29.52,West,270,3.7,3.7,85,0.00,OVC,SKC,0.00,WeatherDisplay:10.37,2013-10-20 12:22:00,
2013-10-20 07:27:00,33.8,29.8,29.52,West,270,3.7,3.7,85,0.00,OVC,SKC,0.00,WeatherDisplay:10.37,2013-10-20 12:27:00,
2013-10-20 07:32:00,33.8,29.8,29.52,West,270,3.7,3.7,85,0.00,OVC,SKC,0.00,WeatherDisplay:10.37,2013-10-20 12:32:00,
2013-10-20 07:37:00,34.2,30.2,29.50,West,259,4.9,7.0,85,0.00,OVC,SKC,0.00,WeatherDisplay:10.37,2013-10-20 12:37:00,
2013-10-20 07:42:00,33.8,29.8,29.52,West,270,3.7,3.7,85,0.00,OVC,SKC,0.00,WeatherDisplay:10.37,2013-10-20 12:42:00,
2013-10-20 07:47:00,34.3,30.3,29.51,WSW,251,4.2,6.0,85,0.00,OVC,SKC,0.00,WeatherDisplay:10.37,2013-10-20 12:47:00,
2013-10-20 07:52:00,34.3,30.3,29.50,WSW,242,5.6,8.0,85,0.00,OVC,SKC,0.00,WeatherDisplay:10.37,2013-10-20 12:52:00,
2013-10-20 07:57:00,33.8,29.8,29.52,West,270,3.7,3.7,85,0.00,OVC,SKC,0.00,WeatherDisplay:10.37,2013-10-20 12:57:00,
2013-10-20 08:02:00,33.8,29.8,29.52,West,270,3.7,3.7,85,0.00,-DZ,SKC,0.00,WeatherDisplay:10.37,2013-10-20 13:02:00,
2013-10-20 08:07:00,34.6,30.3,29.50,SSW,198,6.0,7.0,84,0.00,-DZ,SKC,0.00,WeatherDisplay:10.37,2013-10-20 13:07:00,
2013-10-20 08:12:00,34.7,30.7,29.50,SSW,194,6.7,8.1,85,0.00,-DZ,SKC,0.00,WeatherDisplay:10.37,2013-10-20 13:12:00,
2013-10-20 08:17:00,34.8,30.5,29.50,South,184,6.2,10.0,84,0.00,-DZ,SKC,0.00,WeatherDisplay:10.37,2013-10-20 13:17:00,
2013-10-20 08:22:00,34.8,30.5,29.50,South,175,8.2,11.5,84,0.00,OVC,SKC,0.00,WeatherDisplay:10.37,2013-10-20 13:22:00,
2013-10-20 08:27:00,34.9,30.6,29.50,SSE,163,7.3,12.0,84,0.00,OVC,SKC,0.00,WeatherDisplay:10.37,2013-10-20 13:27:00,
2013-10-20 08:32:00,34.9,30.6,29.49,SSE,163,7.2,11.5,84,0.00,OVC,SKC,0.00,WeatherDisplay:10.37,2013-10-20 13:32:00,
2013-10-20 08:37:00,34.7,30.4,29.50,South,186,7.5,11.5,84,0.00,OVC,SKC,0.00,WeatherDisplay:10.37,2013-10-20 13:37:00,
2013-10-20 08:42:00,35.1,30.5,29.49,SSE,150,7.3,13.0,83,0.00,OVC,SKC,0.00,WeatherDisplay:10.37,2013-10-20 13:42:00,
2013-10-20 08:47:00,35.1,30.8,29.49,SE,143,8.5,11.0,84,0.00,OVC,SKC,0.00,WeatherDisplay:10.37,2013-10-20 13:47:00,
2013-10-20 08:52:00,34.7,30.4,29.50,South,186,7.5,11.5,84,0.00,OVC,SKC,0.00,WeatherDisplay:10.37,2013-10-20 13:52:00,
2013-10-20 08:57:00,35.3,30.9,29.48,SE,141,7.5,11.5,84,0.00,OVC,SKC,0.00,WeatherDisplay:10.37,2013-10-20 13:57:00,
2013-10-20 09:02:00,35.4,30.8,29.48,SE,141,7.6,10.0,83,0.00,OVC,SKC,0.00,WeatherDisplay:10.37,2013-10-20 14:02:00,
2013-10-20 09:07:00,34.7,30.4,29.50,South,186,7.5,11.5,84,0.00,OVC,SKC,0.00,WeatherDisplay:10.37,2013-10-20 14:07:00,
2013-10-20 09:12:00,35.6,30.9,29.48,SE,141,9.4,11.5,83,0.00,OVC,SKC,0.00,WeatherDisplay:10.37,2013-10-20 14:12:00,
2013-10-20 09:17:00,35.7,31.3,29.48,SE,141,5.3,7.0,84,0.00,OVC,SKC,0.00,WeatherDisplay:10.37,2013-10-20 14:17:00,
2013-10-20 09:22:00,35.6,30.9,29.48,SE,141,9.4,9.4,83,0.00,-RA,SKC,0.00,WeatherDisplay:10.37,2013-10-20 14:22:00,
2013-10-20 09:27:00,35.6,30.9,29.48,SE,141,9.4,9.4,83,0.00,-RA,SKC,0.00,WeatherDisplay:10.37,2013-10-20 14:27:00,
2013-10-20 09:32:00,35.6,30.9,29.48,SE,141,9.4,9.4,83,0.00,-RA,SKC,0.00,WeatherDisplay:10.37,2013-10-20 14:32:00,
2013-10-20 09:37:00,35.6,30.9,29.48,SE,141,9.4,9.4,83,0.00,-RA,SKC,0.00,WeatherDisplay:10.37,2013-10-20 14:37:00,
2013-10-20 09:42:00,35.6,30.9,29.48,SE,141,9.4,9.4,83,0.00,-RA,SKC,0.00,WeatherDisplay:10.37,2013-10-20 14:42:00,
2013-10-20 09:47:00,35.6,30.9,29.48,SE,141,9.4,9.4,83,0.00,-RA,SKC,0.00,WeatherDisplay:10.37,2013-10-20 14:47:00,
2013-10-20 09:52:00,36.8,32.4,29.48,SSE,153,7.8,10.4,84,0.00,-RA,SKC,0.00,WeatherDisplay:10.37,2013-10-20 14:52:00,
2013-10-20 09:57:00,36.9,32.2,29.48,SSE,155,7.1,9.0,83,0.00,-RA,SKC,0.00,WeatherDisplay:10.37,2013-10-20 14:57:00,
2013-10-20 10:02:00,37.1,32.7,29.48,SSE,155,7.0,10.4,84,0.00,-DZ,SKC,0.00,WeatherDisplay:10.37,2013-10-20 15:02:00,
2013-10-20 10:07:00,35.6,30.9,29.48,SE,141,9.4,9.4,83,0.00,-DZ,SKC,0.00,WeatherDisplay:10.37,2013-10-20 15:07:00,
2013-10-20 10:12:00,35.6,30.9,29.48,SE,141,9.4,9.4,83,0.00,-DZ,SKC,0.00,WeatherDisplay:10.37,2013-10-20 15:12:00,
2013-10-20 10:17:00,35.6,30.9,29.48,SE,141,9.4,9.4,83,0.00,-DZ,SKC,0.00,WeatherDisplay:10.37,2013-10-20 15:17:00,
2013-10-20 10:22:00,37.8,33.1,29.48,SSE,159,8.4,10.4,83,0.00,-DZ,SKC,0.00,WeatherDisplay:10.37,2013-10-20 15:22:00,
2013-10-20 10:27:00,38.2,33.5,29.48,SSE,163,9.2,12.0,83,0.00,-DZ,SKC,0.00,WeatherDisplay:10.37,2013-10-20 15:27:00,
2013-10-20 10:32:00,38.3,33.6,29.48,SSE,163,7.3,8.1,83,0.00,-DZ,SKC,0.00,WeatherDisplay:10.37,2013-10-20 15:32:00,
2013-10-20 10:37:00,38.3,33.6,29.48,SSE,163,7.3,8.1,83,0.00,-DZ,SKC,0.00,WeatherDisplay:10.37,2013-10-20 15:37:00,
2013-10-20 10:42:00,38.3,33.6,29.48,SSE,163,7.3,8.1,83,0.00,BKN,SKC,0.00,WeatherDisplay:10.37,2013-10-20 15:42:00,
2013-10-20 10:47:00,38.8,33.8,29.46,SSE,155,10.1,13.0,82,0.00,BKN,SKC,0.00,WeatherDisplay:10.37,2013-10-20 15:47:00,
2013-10-20 10:52:00,39.0,34.0,29.46,SSE,158,7.7,12.7,82,0.00,BKN,SKC,0.00,WeatherDisplay:10.37,2013-10-20 15:52:00,
2013-10-20 10:57:00,38.3,33.6,29.48,SSE,163,7.3,8.1,83,0.00,BKN,SKC,0.00,WeatherDisplay:10.37,2013-10-20 15:57:00,
2013-10-20 11:02:00,38.3,33.6,29.48,SSE,163,7.3,8.1,83,0.00,BKN,SKC,0.00,WeatherDisplay:10.37,2013-10-20 16:02:00,
2013-10-20 11:07:00,38.3,33.6,29.48,SSE,163,7.3,8.1,83,0.00,BKN,SKC,0.00,WeatherDisplay:10.37,2013-10-20 16:07:00,
2013-10-20 11:12:00,38.3,33.6,29.48,SSE,163,7.3,8.1,83,0.00,BKN,SKC,0.00,WeatherDisplay:10.37,2013-10-20 16:12:00,
2013-10-20 11:17:00,40.0,34.6,29.46,SSE,167,9.9,12.0,81,0.00,BKN,SKC,0.00,WeatherDisplay:10.37,2013-10-20 16:17:00,
2013-10-20 11:22:00,38.3,33.6,29.48,SSE,163,7.3,8.1,83,0.00,-RA,SKC,0.00,WeatherDisplay:10.37,2013-10-20 16:22:00,
2013-10-20 11:27:00,40.3,35.2,29.45,SSE,167,9.3,12.7,82,0.00,-RA,SKC,0.00,WeatherDisplay:10.37,2013-10-20 16:27:00,
2013-10-20 11:32:00,40.4,35.0,29.46,South,173,7.4,12.7,81,0.00,-RA,SKC,0.00,WeatherDisplay:10.37,2013-10-20 16:32:00,
2013-10-20 11:37:00,38.3,33.6,29.48,SSE,163,7.3,8.1,83,0.00,-RA,SKC,0.00,WeatherDisplay:10.37,2013-10-20 16:37:00,
2013-10-20 11:42:00,38.3,33.6,29.48,SSE,163,7.3,8.1,83,0.00,BKN,SKC,0.00,WeatherDisplay:10.37,2013-10-20 16:42:00,
2013-10-20 11:45:00,41.3,35.9,29.46,South,185,6.4,13.0,81,0.00,BKN,SKC,0.00,WeatherDisplay:10.37,2013-10-20 16:45:00,
2013-10-20 11:50:00,41.8,36.1,29.46,South,188,8.6,13.0,80,0.00,BKN,SKC,0.00,WeatherDisplay:10.37,2013-10-20 16:50:00,
2013-10-20 11:55:00,38.3,33.6,29.48,SSE,163,7.3,8.1,83,0.00,BKN,SKC,0.00,WeatherDisplay:10.37,2013-10-20 16:55:00,
2013-10-20 12:00:00,38.3,33.6,29.48,SSE,163,7.3,8.1,83,0.00,BKN,SKC,0.00,WeatherDisplay:10.37,2013-10-20 17:00:00,
2013-10-20 12:05:00,38.3,33.6,29.48,SSE,163,7.3,8.1,83,0.00,BKN,SKC,0.00,WeatherDisplay:10.37,2013-10-20 17:05:00,
2013-10-20 12:10:00,42.9,37.2,29.45,South,175,8.7,12.0,80,0.00,BKN,SKC,0.00,WeatherDisplay:10.37,2013-10-20 17:10:00,
2013-10-20 12:15:00,42.4,36.7,29.45,SSE,167,9.7,9.7,80,0.00,BKN,SKC,0.00,WeatherDisplay:10.37,2013-10-20 17:15:00,
2013-10-20 12:20:00,44.2,38.1,29.45,SSE,165,11.6,15.0,79,0.00,BKN,SKC,0.00,WeatherDisplay:10.37,2013-10-20 17:20:00,
2013-10-20 12:25:00,45.4,39.3,29.44,South,169,7.7,13.8,79,0.00,BKN,SKC,0.00,WeatherDisplay:10.37,2013-10-20 17:25:00,
2013-10-20 12:30:00,44.2,38.1,29.45,SSE,165,11.6,11.6,79,0.00,BKN,SKC,0.00,WeatherDisplay:10.37,2013-10-20 17:30:00,
2013-10-20 12:35:00,47.2,40.4,29.44,South,180,9.0,15.0,77,0.00,BKN,SKC,0.00,WeatherDisplay:10.37,2013-10-20 17:35:00,
2013-10-20 12:40:00,44.2,38.1,29.45,SSE,165,11.6,11.6,79,0.00,BKN,SKC,0.00,WeatherDisplay:10.37,2013-10-20 17:40:00,
2013-10-20 12:45:00,47.7,40.2,29.43,South,176,11.0,15.0,75,0.00,SCT,SKC,0.00,WeatherDisplay:10.37,2013-10-20 17:45:00,
2013-10-20 12:50:00,44.2,38.1,29.45,SSE,165,11.6,11.6,79,0.00,SCT,SKC,0.00,WeatherDisplay:10.37,2013-10-20 17:50:00,
2013-10-20 12:55:00,48.6,40.7,29.43,South,172,12.1,16.0,74,0.00,SCT,SKC,0.00,WeatherDisplay:10.37,2013-10-20 17:55:00,
2013-10-20 13:01:00,49.4,40.4,29.43,WSW,258,3.6,11.5,71,0.00,SCT,SKC,0.00,WeatherDisplay:10.37,2013-10-20 18:01:00,
2013-10-20 13:06:00,44.2,38.1,29.45,SSE,165,12.0,12.0,79,0.00,SCT,SKC,0.00,WeatherDisplay:10.37,2013-10-20 18:06:00,
2013-10-20 13:11:00,44.2,38.1,29.45,SSE,165,11.6,11.6,79,0.00,CLR,SKC,0.00,WeatherDisplay:10.37,2013-10-20 18:11:00,
2013-10-20 13:16:00,44.2,38.1,29.45,SSE,165,11.6,11.6,79,0.00,CLR,SKC,0.00,WeatherDisplay:10.37,2013-10-20 18:16:00,
2013-10-20 13:21:00,44.2,38.1,29.45,SSE,165,12.0,12.0,79,0.00,CLR,SKC,0.00,WeatherDisplay:10.37,2013-10-20 18:21:00,
2013-10-20 13:26:00,44.2,38.1,29.45,SSE,165,11.6,11.6,79,0.00,CLR,SKC,0.00,WeatherDisplay:10.37,2013-10-20 18:26:00,
2013-10-20 13:31:00,51.9,42.4,29.42,SW,223,3.5,7.0,70,0.00,CLR,SKC,0.00,WeatherDisplay:10.37,2013-10-20 18:31:00,
2013-10-20 13:36:00,44.2,38.1,29.45,SSE,165,12.0,12.0,79,0.00,CLR,SKC,0.00,WeatherDisplay:10.37,2013-10-20 18:36:00,
2013-10-20 13:41:00,44.2,38.1,29.45,SSE,165,11.6,11.6,79,0.00,CLR,SKC,0.00,WeatherDisplay:10.37,2013-10-20 18:41:00,
2013-10-20 13:46:00,53.7,42.2,29.42,South,190,6.7,15.0,65,0.00,CLR,SKC,0.00,WeatherDisplay:10.37,2013-10-20 18:46:00,
2013-10-20 13:51:00,54.0,42.5,29.41,WSW,244,3.9,6.9,65,0.00,CLR,SKC,0.00,WeatherDisplay:10.37,2013-10-20 18:51:00,
2013-10-20 13:56:00,54.0,42.5,29.41,WSW,244,3.9,3.9,65,0.00,CLR,SKC,0.00,WeatherDisplay:10.37,2013-10-20 18:56:00,
2013-10-20 14:01:00,54.0,42.5,29.41,WSW,244,3.9,3.9,65,0.00,CLR,SKC,0.00,WeatherDisplay:10.37,2013-10-20 19:01:00,
2013-10-20 14:06:00,54.0,42.5,29.41,WSW,244,3.0,3.0,65,0.00,CLR,SKC,0.00,WeatherDisplay:10.37,2013-10-20 19:06:00,
2013-10-20 14:11:00,54.0,42.5,29.41,WSW,244,3.9,3.9,65,0.00,CLR,SKC,0.00,WeatherDisplay:10.37,2013-10-20 19:11:00,
2013-10-20 14:16:00,54.0,42.5,29.41,WSW,244,3.9,3.9,65,0.00,CLR,SKC,0.00,WeatherDisplay:10.37,2013-10-20 19:16:00,
2013-10-20 14:21:00,54.0,42.5,29.41,WSW,244,3.0,3.0,65,0.00,SCT,SKC,0.00,WeatherDisplay:10.37,2013-10-20 19:21:00,
2013-10-20 14:26:00,54.0,42.5,29.41,WSW,244,3.9,3.9,65,0.00,SCT,SKC,0.00,WeatherDisplay:10.37,2013-10-20 19:26:00,
2013-10-20 14:31:00,54.0,42.5,29.41,WSW,244,3.9,3.9,65,0.00,SCT,SKC,0.00,WeatherDisplay:10.37,2013-10-20 19:31:00,
2013-10-20 14:36:00,54.0,42.5,29.41,WSW,244,3.0,3.0,65,0.00,SCT,SKC,0.00,WeatherDisplay:10.37,2013-10-20 19:36:00,
2013-10-20 14:41:00,54.0,42.5,29.41,WSW,244,3.9,3.9,65,0.00,BKN,SKC,0.00,WeatherDisplay:10.37,2013-10-20 19:41:00,
2013-10-20 14:46:00,54.0,42.5,29.41,WSW,244,3.9,3.9,65,0.00,BKN,SKC,0.00,WeatherDisplay:10.37,2013-10-20 19:46:00,
2013-10-20 14:51:00,54.0,42.5,29.41,WSW,244,3.0,3.0,65,0.00,BKN,SKC,0.00,WeatherDisplay:10.37,2013-10-20 19:51:00,
2013-10-20 14:56:00,54.4,43.3,29.40,WSW,253,2.0,5.8,66,0.00,BKN,SKC,0.00,WeatherDisplay:10.37,2013-10-20 19:56:00,
2013-10-20 15:01:00,54.0,42.5,29.41,WSW,244,3.9,3.9,65,0.00,BKN,SKC,0.00,WeatherDisplay:10.37,2013-10-20 20:01:00,
2013-10-20 15:06:00,54.0,42.5,29.41,WSW,244,3.0,3.0,65,0.00,BKN,SKC,0.00,WeatherDisplay:10.37,2013-10-20 20:06:00,
2013-10-20 15:11:00,54.0,42.5,29.41,WSW,244,3.9,3.9,65,0.00,BKN,SKC,0.00,WeatherDisplay:10.37,2013-10-20 20:11:00,
2013-10-20 15:16:00,54.0,42.5,29.41,WSW,244,3.9,3.9,65,0.00,BKN,SKC,0.00,WeatherDisplay:10.37,2013-10-20 20:16:00,
2013-10-20 15:21:00,54.0,42.5,29.41,WSW,244,3.9,3.9,65,0.00,OVC,SKC,0.00,WeatherDisplay:10.37,2013-10-20 20:21:00,
2013-10-20 15:26:00,54.0,42.5,29.41,WSW,244,3.9,3.9,65,0.00,OVC,SKC,0.00,WeatherDisplay:10.37,2013-10-20 20:26:00,
2013-10-20 15:31:00,52.5,43.0,29.42,West,281,4.2,17.3,70,0.00,OVC,SKC,0.00,WeatherDisplay:10.37,2013-10-20 20:31:00,
2013-10-20 15:36:00,52.2,43.1,29.42,West,277,3.6,6.0,71,0.00,OVC,SKC,0.00,WeatherDisplay:10.37,2013-10-20 20:36:00,
2013-10-20 15:41:00,52.1,43.0,29.42,West,277,4.9,6.0,71,0.00,OVC,SKC,0.00,WeatherDisplay:10.37,2013-10-20 20:41:00,
2013-10-20 15:46:00,52.2,43.4,29.42,West,277,4.8,7.0,72,0.00,OVC,SKC,0.00,WeatherDisplay:10.37,2013-10-20 20:46:00,
2013-10-20 15:51:00,52.3,43.2,29.42,West,277,6.0,9.0,71,0.00,OVC,SKC,0.00,WeatherDisplay:10.37,2013-10-20 20:51:00,
2013-10-20 15:56:00,52.4,43.3,29.42,West,279,8.8,12.0,71,0.00,OVC,SKC,0.00,WeatherDisplay:10.37,2013-10-20 20:56:00,
2013-10-20 16:01:00,52.3,43.2,29.43,West,278,4.9,8.0,71,0.00,OVC,SKC,0.00,WeatherDisplay:10.37,2013-10-20 21:01:00,
2013-10-20 16:06:00,51.9,42.8,29.43,WNW,285,8.0,12.0,71,0.00,OVC,SKC,0.00,WeatherDisplay:10.37,2013-10-20 21:06:00,
2013-10-20 16:11:00,51.5,42.8,29.43,West,279,5.0,10.4,72,0.00,OVC,SKC,0.00,WeatherDisplay:10.37,2013-10-20 21:11:00,
2013-10-20 16:16:00,52.6,43.1,29.41,West,279,4.4,4.4,70,0.00,OVC,SKC,0.00,WeatherDisplay:10.37,2013-10-20 21:16:00,
2013-10-20 16:21:00,51.1,43.1,29.44,WNW,291,5.0,10.0,74,0.00,OVC,SKC,0.00,WeatherDisplay:10.37,2013-10-20 21:21:00,
2013-10-20 16:26:00,52.6,43.1,29.41,West,279,4.4,4.4,70,0.00,OVC,SKC,0.00,WeatherDisplay:10.37,2013-10-20 21:26:00,
2013-10-20 16:31:00,50.7,42.7,29.44,WNW,284,5.7,8.1,74,0.00,OVC,SKC,0.00,WeatherDisplay:10.37,2013-10-20 21:31:00,
2013-10-20 16:36:00,50.7,43.1,29.44,West,281,5.2,10.4,75,0.00,OVC,SKC,0.00,WeatherDisplay:10.37,2013-10-20 21:36:00,
2013-10-20 16:41:00,50.6,43.0,29.45,West,280,5.2,8.1,75,0.00,OVC,SKC,0.00,WeatherDisplay:10.37,2013-10-20 21:41:00,
2013-10-20 16:46:00,50.3,43.0,29.45,WNW,286,6.0,11.5,76,0.00,OVC,SKC,0.00,WeatherDisplay:10.37,2013-10-20 21:46:00,
2013-10-20 16:51:00,49.7,43.5,29.45,West,278,5.7,11.5,79,0.00,OVC,SKC,0.00,WeatherDisplay:10.37,2013-10-20 21:51:00,
2013-10-20 16:56:00,49.0,43.4,29.46,West,278,5.9,8.1,81,0.00,OVC,SKC,0.00,WeatherDisplay:10.37,2013-10-20 21:56:00,
2013-10-20 17:01:00,48.7,43.1,29.46,West,278,5.2,9.2,81,0.00,OVC,SKC,0.00,WeatherDisplay:10.37,2013-10-20 22:01:00,
2013-10-20 17:06:00,48.6,43.0,29.46,West,280,7.0,12.0,81,0.00,OVC,SKC,0.00,WeatherDisplay:10.37,2013-10-20 22:06:00,
2013-10-20 17:11:00,48.6,43.0,29.46,West,281,4.5,6.0,81,0.00,OVC,SKC,0.00,WeatherDisplay:10.37,2013-10-20 22:11:00,
2013-10-20 17:16:00,48.6,43.0,29.46,West,281,4.5,4.5,81,0.00,OVC,SKC,0.00,WeatherDisplay:10.37,2013-10-20 22:16:00,
2013-10-20 17:21:00,48.6,43.0,29.46,West,281,4.5,4.5,81,0.00,OVC,SKC,0.00,WeatherDisplay:10.37,2013-10-20 22:21:00,
2013-10-20 17:26:00,48.6,43.0,29.46,West,281,4.5,4.5,81,0.00,OVC,SKC,0.00,WeatherDisplay:10.37,2013-10-20 22:26:00,
2013-10-20 17:31:00,48.6,43.0,29.46,West,281,4.5,4.5,81,0.00,OVC,SKC,0.00,WeatherDisplay:10.37,2013-10-20 22:31:00,
2013-10-20 17:36:00,48.6,43.0,29.46,West,281,4.5,4.5,81,0.00,OVC,SKC,0.00,WeatherDisplay:10.37,2013-10-20 22:36:00,
2013-10-20 17:41:00,48.6,43.0,29.46,West,281,4.5,4.5,81,0.00,OVC,SKC,0.00,WeatherDisplay:10.37,2013-10-20 22:41:00,
2013-10-20 17:46:00,48.6,43.0,29.46,West,281,4.5,4.5,81,0.00,OVC,SKC,0.00,WeatherDisplay:10.37,2013-10-20 22:46:00,
2013-10-20 17:51:00,48.6,43.0,29.46,West,281,4.5,4.5,81,0.00,OVC,SKC,0.00,WeatherDisplay:10.37,2013-10-20 22:51:00,
2013-10-20 17:56:00,48.6,43.0,29.46,West,281,4.5,4.5,81,0.00,OVC,SKC,0.00,WeatherDisplay:10.37,2013-10-20 22:56:00,
2013-10-20 18:01:00,48.6,43.0,29.46,West,281,4.5,4.5,81,0.00,OVC,SKC,0.00,WeatherDisplay:10.37,2013-10-20 23:01:00,
2013-10-20 18:06:00,48.6,43.0,29.46,West,281,4.5,4.5,81,0.00,OVC,SKC,0.00,WeatherDisplay:10.37,2013-10-20 23:06:00,
2013-10-20 18:11:00,48.6,43.0,29.46,West,281,4.5,4.5,81,0.00,OVC,SKC,0.00,WeatherDisplay:10.37,2013-10-20 23:11:00,
2013-10-20 18:16:00,48.6,43.0,29.46,West,281,4.5,4.5,81,0.00,OVC,SKC,0.00,WeatherDisplay:10.37,2013-10-20 23:16:00,
2013-10-20 18:21:00,48.6,43.0,29.46,West,281,4.5,4.5,81,0.00,OVC,SKC,0.00,WeatherDisplay:10.37,2013-10-20 23:21:00,
2013-10-20 18:26:00,48.6,43.0,29.46,West,281,4.5,4.5,81,0.00,OVC,SKC,0.00,WeatherDisplay:10.37,2013-10-20 23:26:00,
2013-10-20 18:31:00,48.6,43.0,29.46,West,281,4.5,4.5,81,0.00,OVC,SKC,0.00,WeatherDisplay:10.37,2013-10-20 23:31:00,
2013-10-20 18:36:00,45.0,40.5,29.52,NW,307,2.1,5.0,84,0.00,OVC,SKC,0.00,WeatherDisplay:10.37,2013-10-20 23:36:00,
2013-10-20 18:41:00,44.7,40.2,29.52,WNW,301,4.3,7.0,84,0.00,-DZ,SKC,0.00,WeatherDisplay:10.37,2013-10-20 23:41:00,
2013-10-20 18:46:00,44.5,40.0,29.52,WNW,301,3.1,5.0,84,0.00,-DZ,SKC,0.00,WeatherDisplay:10.37,2013-10-20 23:46:00,
2013-10-20 18:51:00,44.4,39.9,29.53,WNW,301,3.2,6.0,84,0.00,-DZ,SKC,0.00,WeatherDisplay:10.37,2013-10-20 23:51:00,
2013-10-20 18:56:00,44.2,39.7,29.53,WNW,301,4.8,6.9,84,0.00,-DZ,SKC,0.00,WeatherDisplay:10.37,2013-10-20 23:56:00,
2013-10-20 19:01:00,44.0,39.5,29.53,WNW,300,3.6,6.0,84,0.00,-DZ,SKC,0.00,WeatherDisplay:10.37,2013-10-21 00:01:00,
2013-10-20 19:06:00,43.8,39.3,29.54,WNW,300,3.3,6.0,84,0.00,-DZ,SKC,0.00,WeatherDisplay:10.37,2013-10-21 00:06:00,
2013-10-20 19:11:00,43.6,39.1,29.54,WNW,297,4.7,8.1,84,0.00,-DZ,SKC,0.00,WeatherDisplay:10.37,2013-10-21 00:11:00,
2013-10-20 19:16:00,43.4,38.9,29.55,WNW,296,4.9,7.0,84,0.00,-DZ,SKC,0.00,WeatherDisplay:10.37,2013-10-21 00:16:00,
2013-10-20 19:21:00,43.2,38.7,29.55,WNW,296,4.1,8.1,84,0.00,-DZ,SKC,0.00,WeatherDisplay:10.37,2013-10-21 00:21:00,
2013-10-20 19:26:00,43.1,38.6,29.55,WNW,296,5.1,7.0,84,0.00,-DZ,SKC,0.00,WeatherDisplay:10.37,2013-10-21 00:26:00,
2013-10-20 19:31:00,43.0,38.5,29.56,WNW,296,3.4,5.8,84,0.00,-DZ,SKC,0.00,WeatherDisplay:10.37,2013-10-21 00:31:00,
2013-10-20 19:36:00,42.9,38.4,29.56,WNW,296,4.7,7.0,84,0.00,-DZ,SKC,0.00,WeatherDisplay:10.37,2013-10-21 00:36:00,
2013-10-20 19:41:00,42.8,38.3,29.57,WNW,296,4.2,7.0,84,0.00,OVC,SKC,0.00,WeatherDisplay:10.37,2013-10-21 00:41:00,
2013-10-20 19:46:00,42.6,38.1,29.57,WNW,296,5.0,8.1,84,0.00,OVC,SKC,0.00,WeatherDisplay:10.37,2013-10-21 00:46:00,
2013-10-20 19:51:00,42.3,37.8,29.57,WNW,296,3.4,5.0,84,0.00,OVC,SKC,0.00,WeatherDisplay:10.37,2013-10-21 00:51:00,
2013-10-20 19:56:00,42.1,37.6,29.58,WNW,296,3.6,6.0,84,0.00,OVC,SKC,0.00,WeatherDisplay:10.37,2013-10-21 00:56:00,
2013-10-20 20:01:00,41.6,37.1,29.58,WNW,296,4.4,7.0,84,0.00,OVC,SKC,0.00,WeatherDisplay:10.37,2013-10-21 01:01:00,
2013-10-20 20:06:00,41.3,36.8,29.58,WNW,296,3.9,6.9,84,0.00,OVC,SKC,0.00,WeatherDisplay:10.37,2013-10-21 01:06:00,
2013-10-20 20:11:00,41.1,36.6,29.59,WNW,296,3.9,5.8,84,0.00,OVC,SKC,0.00,WeatherDisplay:10.37,2013-10-21 01:11:00,
2013-10-20 20:16:00,40.8,36.0,29.59,NW,306,4.5,8.1,83,0.00,OVC,SKC,0.00,WeatherDisplay:10.37,2013-10-21 01:16:00,
2013-10-20 20:21:00,40.5,35.7,29.60,NW,306,4.5,8.0,83,0.00,OVC,SKC,0.00,WeatherDisplay:10.37,2013-10-21 01:21:00,
2013-10-20 20:26:00,40.4,35.6,29.60,NW,306,3.4,5.0,83,0.00,OVC,SKC,0.00,WeatherDisplay:10.37,2013-10-21 01:26:00,
2013-10-20 20:31:00,40.2,35.4,29.60,WNW,295,3.8,5.0,83,0.00,OVC,SKC,0.00,WeatherDisplay:10.37,2013-10-21 01:31:00,
2013-10-20 20:36:00,40.0,34.9,29.61,WNW,295,4.4,6.0,82,0.00,OVC,SKC,0.00,WeatherDisplay:10.37,2013-10-21 01:36:00,
2013-10-20 20:41:00,39.8,34.8,29.61,WNW,295,3.9,6.0,82,0.00,OVC,SKC,0.00,WeatherDisplay:10.37,2013-10-21 01:41:00,
2013-10-20 20:46:00,39.8,34.8,29.61,WNW,295,4.4,8.1,82,0.00,OVC,SKC,0.00,WeatherDisplay:10.37,2013-10-21 01:46:00,
2013-10-20 20:51:00,39.7,34.7,29.61,WNW,295,4.3,6.9,82,0.00,OVC,SKC,0.00,WeatherDisplay:10.37,2013-10-21 01:51:00,
2013-10-20 20:56:00,39.7,34.7,29.61,WNW,295,3.9,6.0,82,0.00,OVC,SKC,0.00,WeatherDisplay:10.37,2013-10-21 01:56:00,
2013-10-20 21:01:00,39.7,34.7,29.62,WNW,296,4.1,7.0,82,0.00,OVC,SKC,0.00,WeatherDisplay:10.37,2013-10-21 02:01:00,
2013-10-20 21:06:00,39.7,35.0,29.62,WNW,296,4.5,7.0,83,0.00,OVC,SKC,0.00,WeatherDisplay:10.37,2013-10-21 02:06:00,
2013-10-20 21:11:00,39.5,34.5,29.62,WNW,298,5.4,11.5,82,0.00,OVC,SKC,0.00,WeatherDisplay:10.37,2013-10-21 02:11:00,
2013-10-20 21:16:00,39.3,34.0,29.63,WNW,299,5.5,8.1,81,0.00,OVC,SKC,0.00,WeatherDisplay:10.37,2013-10-21 02:16:00,
2013-10-20 21:21:00,39.1,33.8,29.63,WNW,300,4.6,8.1,81,0.00,OVC,SKC,0.00,WeatherDisplay:10.37,2013-10-21 02:21:00,
2013-10-20 21:26:00,39.1,33.8,29.63,WNW,300,4.6,4.6,81,0.00,OVC,SKC,0.00,WeatherDisplay:10.37,2013-10-21 02:26:00,
2013-10-20 21:31:00,38.8,33.2,29.64,WNW,300,2.9,3.5,80,0.00,OVC,SKC,0.00,WeatherDisplay:10.37,2013-10-21 02:31:00,
2013-10-20 21:36:00,38.8,33.2,29.64,WNW,300,2.8,5.8,80,0.00,OVC,SKC,0.00,WeatherDisplay:10.37,2013-10-21 02:36:00,
2013-10-20 21:41:00,38.8,33.2,29.64,WNW,300,4.7,7.0,80,0.00,OVC,SKC,0.00,WeatherDisplay:10.37,2013-10-21 02:41:00,
2013-10-20 21:46:00,38.8,32.8,29.64,WNW,302,3.8,8.1,79,0.00,OVC,SKC,0.00,WeatherDisplay:10.37,2013-10-21 02:46:00,
2013-10-20 21:51:00,38.9,33.3,29.64,WNW,302,2.8,6.0,80,0.00,OVC,SKC,0.00,WeatherDisplay:10.37,2013-10-21 02:51:00,
2013-10-20 21:56:00,38.9,33.3,29.65,WNW,302,2.4,4.6,80,0.00,OVC,SKC,0.00,WeatherDisplay:10.37,2013-10-21 02:56:00,
2013-10-20 22:01:00,39.0,33.4,29.65,WNW,302,2.5,3.5,80,0.00,OVC,SKC,0.00,WeatherDisplay:10.37,2013-10-21 03:01:00,
2013-10-20 22:06:00,39.0,33.4,29.65,WNW,302,2.5,3.5,80,0.00,OVC,SKC,0.00,WeatherDisplay:10.37,2013-10-21 03:06:00,
2013-10-20 22:11:00,39.0,33.4,29.65,WNW,302,2.5,3.5,80,0.00,OVC,SKC,0.00,WeatherDisplay:10.37,2013-10-21 03:11:00,
2013-10-20 22:16:00,39.0,33.4,29.65,WNW,302,2.5,3.5,80,0.00,OVC,SKC,0.00,WeatherDisplay:10.37,2013-10-21 03:16:00,
2013-10-20 22:21:00,39.0,33.4,29.65,WNW,301,3.3,7.0,80,0.00,OVC,SKC,0.00,WeatherDisplay:10.37,2013-10-21 03:21:00,
2013-10-20 22:26:00,38.9,33.3,29.65,WNW,303,2.6,5.8,80,0.00,OVC,SKC,0.00,WeatherDisplay:10.37,2013-10-21 03:26:00,
2013-10-20 22:31:00,38.9,33.3,29.65,WNW,303,2.8,5.0,80,0.00,OVC,SKC,0.00,WeatherDisplay:10.37,2013-10-21 03:31:00,
2013-10-20 22:36:00,38.8,33.2,29.65,NW,307,3.0,6.0,80,0.00,OVC,SKC,0.00,WeatherDisplay:10.37,2013-10-21 03:36:00,
2013-10-20 22:41:00,38.8,33.2,29.66,NW,307,2.6,4.0,80,0.00,OVC,SKC,0.00,WeatherDisplay:10.37,2013-10-21 03:41:00,
2013-10-20 22:46:00,38.8,33.2,29.66,NW,307,2.2,4.6,80,0.00,OVC,SKC,0.00,WeatherDisplay:10.37,2013-10-21 03:46:00,
2013-10-20 22:51:00,38.8,33.2,29.66,NW,307,3.4,5.0,80,0.00,OVC,SKC,0.00,WeatherDisplay:10.37,2013-10-21 03:51:00,
2013-10-20 22:56:00,38.8,33.2,29.66,NW,307,2.9,5.8,80,0.00,OVC,SKC,0.00,WeatherDisplay:10.37,2013-10-21 03:56:00,
2013-10-20 23:01:00,38.8,33.2,29.66,NW,307,2.8,5.0,80,0.00,OVC,SKC,0.00,WeatherDisplay:10.37,2013-10-21 04:01:00,
2013-10-20 23:02:00,38.8,33.2,29.66,NW,307,2.2,4.6,80,0.00,OVC,SKC,0.00,WeatherDisplay:10.37,2013-10-21 04:02:00,
2013-10-20 23:04:00,38.8,33.2,29.66,NW,307,2.6,5.0,80,0.00,OVC,SKC,0.00,WeatherDisplay:10.37,2013-10-21 04:04:00,
2013-10-20 23:07:00,38.8,33.2,29.66,NW,307,3.8,6.0,80,0.00,OVC,SKC,0.00,WeatherDisplay:10.37,2013-10-21 04:07:00,
2013-10-20 23:09:00,38.7,33.1,29.66,NW,307,3.8,5.8,80,0.00,OVC,SKC,0.00,WeatherDisplay:10.37,2013-10-21 04:09:00,
2013-10-20 23:13:00,38.7,33.1,29.66,NW,306,3.1,4.6,80,0.00,OVC,SKC,0.00,WeatherDisplay:10.37,2013-10-21 04:13:00,
2013-10-20 23:18:00,38.7,33.1,29.67,WNW,293,2.2,3.5,80,0.00,OVC,SKC,0.00,WeatherDisplay:10.37,2013-10-21 04:18:00,
2013-10-20 23:23:00,38.7,33.4,29.67,WNW,293,2.2,4.0,81,0.00,OVC,SKC,0.00,WeatherDisplay:10.37,2013-10-21 04:23:00,
2013-10-20 23:28:00,38.7,33.4,29.67,WNW,293,2.6,4.0,81,0.00,OVC,SKC,0.00,WeatherDisplay:10.37,2013-10-21 04:28:00,
2013-10-20 23:33:00,38.6,33.3,29.67,WNW,293,3.7,5.0,81,0.00,OVC,SKC,0.00,WeatherDisplay:10.37,2013-10-21 04:33:00,
2013-10-20 23:38:00,38.6,33.3,29.67,WNW,293,3.1,6.0,81,0.00,OVC,SKC,0.00,WeatherDisplay:10.37,2013-10-21 04:38:00,
2013-10-20 23:43:00,38.5,33.2,29.67,WNW,293,1.8,4.0,81,0.00,OVC,SKC,0.00,WeatherDisplay:10.37,2013-10-21 04:43:00,
2013-10-20 23:48:00,38.4,33.4,29.67,WNW,293,2.1,4.0,82,0.00,OVC,SKC,0.00,WeatherDisplay:10.37,2013-10-21 04:48:00,
2013-10-20 23:53:00,38.3,33.3,29.67,WNW,293,2.2,3.5,82,0.00,OVC,SKC,0.00,WeatherDisplay:10.37,2013-10-21 04:53:00,
2013-10-20 23:58:00,38.2,33.2,29.67,WNW,293,2.1,3.5,82,0.00,OVC,SKC,0.00,WeatherDisplay:10.37,2013-10-21 04:58:00,